Time;durP1;ratioP1;P1;durP2;ratioP2;P2;SDS_P1;SDS_P2;PMS_P1;PMS_P2;Temp;Humidity;BMP_temperature;BMP_pressure;BME280_temperature;BME280_humidity;BME280_pressure;Samples;Min_cycle;Max_cycle;Signal;HPM_P1;HPM_P2
2022/04/10 00:01:34;;;;;;;9.88;2.28;;;5.60;99.90;;;;;;5049333;28;20442;-73
2022/04/10 00:04:00;;;;;;;14.80;2.60;;;5.20;99.90;;;;;;5066409;28;20028;-73
2022/04/10 00:06:26;;;;;;;14.50;2.28;;;5.60;99.90;;;;;;5048278;28;20041;-73
2022/04/10 00:08:52;;;;;;;7.93;2.42;;;5.70;99.90;;;;;;5061795;28;20258;-73
2022/04/10 00:11:18;;;;;;;11.85;2.67;;;5.70;99.90;;;;;;5003480;28;20037;-73
2022/04/10 00:13:44;;;;;;;12.60;3.03;;;5.40;99.90;;;;;;5084266;28;20037;-73
2022/04/10 00:16:10;;;;;;;16.67;2.90;;;5.60;99.90;;;;;;5049610;28;20265;-72
2022/04/10 00:18:39;;;;;;;12.40;2.50;;;5.30;99.90;;;;;;5032417;28;20104;-73
2022/04/10 00:21:05;;;;;;;10.32;2.38;;;5.20;99.90;;;;;;5037072;28;20045;-73
2022/04/10 00:23:32;;;;;;;6.47;2.38;;;5.40;99.90;;;;;;5038606;28;20065;-72
2022/04/10 00:25:58;;;;;;;7.75;2.60;;;5.10;99.90;;;;;;5036638;28;20076;-73
2022/04/10 00:28:23;;;;;;;10.85;2.35;;;5.20;99.90;;;;;;5034403;28;20045;-73
2022/04/10 00:30:49;;;;;;;13.40;2.92;;;5.30;99.90;;;;;;5035800;28;20146;-73
2022/04/10 00:33:15;;;;;;;9.73;2.03;;;5.40;99.90;;;;;;5036549;28;20449;-73
2022/04/10 00:35:41;;;;;;;11.52;2.40;;;5.10;99.90;;;;;;5042079;28;20036;-72
2022/04/10 00:38:06;;;;;;;14.50;3.33;;;5.20;99.90;;;;;;5036398;28;20243;-72
2022/04/10 00:40:32;;;;;;;14.90;2.97;;;5.30;99.90;;;;;;5040183;28;20103;-73
2022/04/10 00:42:58;;;;;;;13.55;2.40;;;5.10;99.90;;;;;;5036542;28;20045;-73
2022/04/10 00:45:24;;;;;;;10.80;2.38;;;5.10;99.90;;;;;;5036683;28;20256;-73
2022/04/10 00:47:50;;;;;;;11.43;3.08;;;5.10;99.90;;;;;;5030239;28;20048;-72
2022/04/10 00:50:18;;;;;;;15.52;3.08;;;5.10;99.90;;;;;;5042298;28;20047;-72
2022/04/10 00:52:48;;;;;;;8.77;3.08;;;5.10;99.90;;;;;;5066795;28;20075;-73
2022/04/10 00:55:15;;;;;;;11.68;3.15;;;5.10;99.90;;;;;;5036406;28;20083;-72
2022/04/10 00:57:41;;;;;;;10.07;2.38;;;5.10;99.90;;;;;;5068755;28;20041;-72
2022/04/10 01:00:10;;;;;;;10.75;3.35;;;5.50;99.90;;;;;;5039421;28;20065;-72
2022/04/10 01:02:36;;;;;;;11.35;2.50;;;5.10;99.90;;;;;;5024340;28;20033;-74
2022/04/10 01:05:03;;;;;;;12.00;2.47;;;5.10;99.90;;;;;;5028931;28;20041;-73
2022/04/10 01:07:29;;;;;;;15.93;2.70;;;4.90;99.90;;;;;;5085176;28;20281;-72
2022/04/10 01:09:55;;;;;;;10.10;2.53;;;4.90;99.90;;;;;;5043703;28;20033;-71
2022/04/10 01:12:22;;;;;;;13.38;2.35;;;4.80;99.90;;;;;;5059192;28;20284;-73
2022/04/10 01:14:48;;;;;;;9.70;2.55;;;4.80;99.90;;;;;;5025351;28;20033;-72
2022/04/10 01:17:14;;;;;;;9.20;2.25;;;4.80;99.90;;;;;;5042348;28;20045;-71
2022/04/10 01:19:41;;;;;;;8.93;2.35;;;4.70;99.90;;;;;;5074319;28;20107;-72
2022/04/10 01:22:08;;;;;;;11.43;2.08;;;4.80;99.90;;;;;;5063419;28;20057;-73
2022/04/10 01:24:37;;;;;;;13.65;2.30;;;5.00;99.90;;;;;;5055032;28;20021;-74
2022/04/10 01:27:04;;;;;;;10.27;2.28;;;4.80;99.90;;;;;;5075354;28;20025;-72
2022/04/10 01:29:30;;;;;;;7.72;2.40;;;4.80;99.90;;;;;;5041273;28;20049;-72
2022/04/10 01:31:56;;;;;;;11.40;2.33;;;4.70;99.90;;;;;;5045079;28;20047;-72
2022/04/10 01:34:22;;;;;;;5.70;1.70;;;4.80;99.90;;;;;;5038584;28;20029;-75
2022/04/10 01:36:48;;;;;;;10.05;2.05;;;4.70;99.90;;;;;;5057799;28;20103;-74
2022/04/10 01:39:15;;;;;;;13.55;2.20;;;4.70;99.90;;;;;;5029472;28;20026;-74
2022/04/10 01:41:41;;;;;;;9.52;2.00;;;5.30;99.90;;;;;;5049818;28;20041;-73
2022/04/10 01:44:09;;;;;;;5.78;2.03;;;4.60;99.90;;;;;;5045554;28;20033;-74
2022/04/10 01:46:36;;;;;;;8.07;1.92;;;4.90;99.90;;;;;;5040802;28;20211;-74
2022/04/10 01:49:04;;;;;;;9.60;2.30;;;4.90;99.90;;;;;;5074412;28;20041;-74
2022/04/10 01:51:30;;;;;;;10.35;1.77;;;4.70;99.90;;;;;;5054311;28;20386;-74
2022/04/10 01:53:56;;;;;;;10.90;2.72;;;4.80;99.90;;;;;;5040851;28;20032;-74
2022/04/10 01:56:22;;;;;;;10.52;2.33;;;5.20;99.90;;;;;;5046908;28;20320;-75
2022/04/10 01:58:52;;;;;;;14.80;2.67;;;4.80;99.90;;;;;;5041616;28;20037;-74
2022/04/10 02:01:18;;;;;;;11.07;2.28;;;5.10;99.90;;;;;;5041377;28;20029;-74
2022/04/10 02:03:47;;;;;;;7.38;2.00;;;5.00;99.90;;;;;;5053403;28;20047;-72
2022/04/10 02:06:14;;;;;;;11.98;2.85;;;5.40;99.90;;;;;;5055074;28;20369;-75
2022/04/10 02:08:44;;;;;;;11.82;2.80;;;5.10;99.90;;;;;;5049573;28;20107;-74
2022/04/10 02:11:14;;;;;;;12.57;2.50;;;5.70;99.90;;;;;;5041297;28;20247;-74
2022/04/10 02:13:41;;;;;;;13.23;2.53;;;5.30;99.90;;;;;;5047535;28;20043;-73
2022/04/10 02:16:11;;;;;;;9.52;2.78;;;4.70;99.90;;;;;;5048024;28;20041;-78
2022/04/10 02:18:37;;;;;;;9.65;2.25;;;4.70;99.90;;;;;;5057701;28;20048;-73
2022/04/10 02:21:03;;;;;;;12.27;2.90;;;4.50;99.90;;;;;;5025442;28;20189;-73
2022/04/10 02:23:29;;;;;;;9.48;2.70;;;4.40;99.90;;;;;;5008284;28;20029;-74
2022/04/10 02:25:55;;;;;;;8.07;2.45;;;5.10;99.90;;;;;;5059132;28;20084;-75
2022/04/10 02:28:21;;;;;;;10.27;2.40;;;4.50;99.90;;;;;;5057405;28;20356;-73
2022/04/10 02:30:47;;;;;;;9.25;2.40;;;4.60;99.90;;;;;;5046735;28;20033;-75
2022/04/10 02:33:12;;;;;;;8.60;2.72;;;4.80;99.90;;;;;;5050509;28;20068;-73
2022/04/10 02:35:40;;;;;;;13.57;2.50;;;4.70;99.90;;;;;;5036479;28;20033;-75
2022/04/10 02:38:06;;;;;;;13.63;2.75;;;4.80;99.90;;;;;;5026254;28;20083;-73
2022/04/10 02:40:32;;;;;;;9.18;2.45;;;4.80;99.90;;;;;;5058364;28;20041;-75
2022/04/10 02:42:57;;;;;;;8.07;2.42;;;4.50;99.90;;;;;;5058825;28;20096;-75
2022/04/10 02:45:23;;;;;;;12.27;2.80;;;4.40;99.90;;;;;;5060688;28;20108;-75
2022/04/10 02:47:49;;;;;;;8.02;1.83;;;4.80;99.90;;;;;;5031414;28;20311;-73
2022/04/10 02:50:14;;;;;;;11.18;3.13;;;5.10;99.90;;;;;;5046066;28;20204;-74
2022/04/10 02:52:40;;;;;;;10.00;2.05;;;4.60;99.90;;;;;;5059915;28;20350;-77
2022/04/10 02:55:07;;;;;;;10.70;2.85;;;4.70;99.90;;;;;;5044411;28;20039;-74
2022/04/10 02:57:34;;;;;;;5.30;2.53;;;4.10;99.90;;;;;;5038438;28;20061;-77
2022/04/10 03:00:00;;;;;;;7.90;2.00;;;4.10;99.90;;;;;;5023620;28;20068;-75
2022/04/10 03:02:25;;;;;;;6.95;2.40;;;5.10;99.90;;;;;;5072420;28;20024;-75
2022/04/10 03:04:51;;;;;;;13.23;3.28;;;4.30;99.90;;;;;;5053538;28;20350;-75
2022/04/10 03:07:16;;;;;;;10.52;2.63;;;5.00;99.90;;;;;;5040761;28;20041;-75
2022/04/10 03:09:42;;;;;;;16.17;3.30;;;4.80;99.90;;;;;;5040615;28;20099;-74
2022/04/10 03:12:08;;;;;;;7.97;1.92;;;4.70;99.90;;;;;;5023604;28;20034;-73
2022/04/10 03:14:35;;;;;;;9.50;2.20;;;5.20;99.90;;;;;;5073820;28;20148;-75
2022/04/10 03:17:01;;;;;;;9.75;2.42;;;5.70;99.90;;;;;;5057480;28;20318;-75
2022/04/10 03:19:28;;;;;;;7.47;1.65;;;5.30;99.90;;;;;;5056956;28;20045;-74
2022/04/10 03:21:54;;;;;;;8.70;2.17;;;5.20;99.90;;;;;;5027158;28;20025;-75
2022/04/10 03:24:20;;;;;;;4.57;1.60;;;5.10;99.90;;;;;;5029154;28;20209;-72
2022/04/10 03:26:45;;;;;;;5.57;2.10;;;5.00;99.90;;;;;;5007188;28;20037;-74
2022/04/10 03:29:12;;;;;;;7.40;1.95;;;4.90;99.90;;;;;;5056694;28;20037;-74
2022/04/10 03:31:38;;;;;;;4.50;1.67;;;4.80;99.90;;;;;;5007597;28;20025;-75
2022/04/10 03:34:04;;;;;;;10.20;2.13;;;5.30;99.90;;;;;;5035167;28;20037;-73
2022/04/10 03:36:30;;;;;;;12.13;2.80;;;5.40;99.90;;;;;;5040317;28;20037;-73
2022/04/10 03:38:55;;;;;;;7.55;2.63;;;5.10;99.90;;;;;;5040408;28;20038;-75
2022/04/10 03:41:21;;;;;;;11.15;2.28;;;5.30;99.90;;;;;;5040092;28;20103;-74
2022/04/10 03:43:47;;;;;;;9.65;1.88;;;5.10;99.90;;;;;;5040106;28;20036;-74
2022/04/10 03:46:12;;;;;;;6.40;1.58;;;5.00;99.90;;;;;;5009015;28;20030;-73
2022/04/10 03:48:38;;;;;;;9.90;1.80;;;5.00;99.90;;;;;;5022931;28;20056;-72
2022/04/10 03:51:04;;;;;;;8.80;2.00;;;5.40;99.90;;;;;;5040525;28;20109;-72
2022/04/10 03:53:29;;;;;;;6.85;1.77;;;5.40;99.90;;;;;;5023264;28;20037;-73
2022/04/10 03:55:55;;;;;;;8.85;1.70;;;5.50;99.90;;;;;;5040499;28;20037;-72
2022/04/10 03:58:21;;;;;;;7.90;2.15;;;5.50;99.90;;;;;;5040339;28;20068;-73
2022/04/10 04:00:47;;;;;;;5.45;1.23;;;5.50;99.90;;;;;;5056605;28;20029;-72
2022/04/10 04:03:13;;;;;;;8.35;1.73;;;5.20;99.90;;;;;;5047182;28;20028;-73
2022/04/10 04:05:39;;;;;;;7.07;2.33;;;5.10;99.90;;;;;;5043753;28;20024;-73
2022/04/10 04:08:05;;;;;;;7.18;1.58;;;5.00;99.90;;;;;;5049484;28;20731;-72
2022/04/10 04:10:31;;;;;;;5.20;1.35;;;5.00;99.90;;;;;;5054523;28;20041;-73
2022/04/10 04:12:56;;;;;;;8.60;1.88;;;5.20;99.90;;;;;;5043305;28;20033;-73
2022/04/10 04:15:22;;;;;;;7.10;1.60;;;5.20;99.90;;;;;;5043727;28;20040;-74
2022/04/10 04:17:48;;;;;;;4.88;1.15;;;4.90;99.90;;;;;;5059045;28;20470;-73
2022/04/10 04:20:14;;;;;;;5.15;1.40;;;4.90;99.90;;;;;;5040847;28;20311;-73
2022/04/10 04:22:39;;;;;;;6.15;1.38;;;5.20;99.90;;;;;;5042364;28;20025;-74
2022/04/10 04:25:06;;;;;;;4.05;1.30;;;5.20;99.90;;;;;;5081660;28;20039;-74
2022/04/10 04:27:32;;;;;;;7.38;1.30;;;4.90;99.90;;;;;;5059863;28;20241;-74
2022/04/10 04:29:59;;;;;;;6.68;1.17;;;5.10;99.90;;;;;;5043261;28;20040;-74
2022/04/10 04:32:24;;;;;;;5.10;1.60;;;5.70;99.90;;;;;;5043174;28;20040;-74
2022/04/10 04:34:50;;;;;;;6.35;1.42;;;4.70;99.90;;;;;;5042268;28;20038;-75
2022/04/10 04:37:16;;;;;;;6.38;1.58;;;5.30;99.90;;;;;;5042191;28;20029;-74
2022/04/10 04:39:41;;;;;;;5.90;2.00;;;4.70;99.90;;;;;;5026339;28;20052;-74
2022/04/10 04:42:07;;;;;;;5.88;1.50;;;5.70;99.90;;;;;;5032841;28;20346;-73
2022/04/10 04:44:33;;;;;;;3.85;1.20;;;5.10;99.90;;;;;;5041589;28;20038;-73
2022/04/10 04:46:59;;;;;;;5.05;1.23;;;4.60;99.90;;;;;;5042570;28;20041;-73
2022/04/10 04:49:26;;;;;;;10.13;1.83;;;4.50;99.90;;;;;;5042559;28;20100;-73
2022/04/10 04:51:51;;;;;;;4.03;1.33;;;4.50;99.90;;;;;;5042559;28;20022;-73
2022/04/10 04:54:17;;;;;;;4.28;1.35;;;4.40;99.90;;;;;;5050486;28;20044;-75
2022/04/10 04:56:43;;;;;;;5.38;1.42;;;4.50;99.90;;;;;;5039378;28;20067;-74
2022/04/10 04:59:08;;;;;;;5.13;1.55;;;4.40;99.90;;;;;;5045920;28;20106;-73
2022/04/10 05:01:34;;;;;;;5.15;1.50;;;5.00;99.90;;;;;;5032824;28;20033;-73
2022/04/10 05:04:00;;;;;;;6.20;1.60;;;5.60;99.90;;;;;;5050261;28;20060;-74
2022/04/10 05:06:26;;;;;;;3.45;1.20;;;4.80;99.90;;;;;;5051195;28;20040;-73
2022/04/10 05:08:52;;;;;;;6.03;1.27;;;5.40;99.90;;;;;;5071949;28;20033;-73
2022/04/10 05:11:18;;;;;;;4.32;1.48;;;4.70;99.90;;;;;;5044702;28;20048;-72
2022/04/10 05:13:44;;;;;;;3.95;1.30;;;5.00;99.90;;;;;;5025020;28;20029;-73
2022/04/10 05:16:10;;;;;;;6.90;1.83;;;5.30;99.90;;;;;;5043536;28;20076;-73
2022/04/10 05:18:36;;;;;;;3.60;1.67;;;5.30;99.90;;;;;;5045425;28;20029;-73
2022/04/10 05:21:02;;;;;;;6.85;1.73;;;5.00;99.90;;;;;;5045314;28;20038;-73
2022/04/10 05:23:28;;;;;;;4.85;1.35;;;5.50;99.90;;;;;;5027644;28;20041;-73
2022/04/10 05:25:54;;;;;;;11.43;1.85;;;5.70;99.90;;;;;;5055812;28;20041;-73
2022/04/10 05:28:20;;;;;;;4.45;1.45;;;5.70;99.90;;;;;;5038676;28;20048;-73
2022/04/10 05:30:46;;;;;;;2.95;1.63;;;5.80;99.90;;;;;;5061531;28;20104;-73
2022/04/10 05:33:12;;;;;;;9.32;1.67;;;5.30;99.90;;;;;;5049665;28;20108;-73
2022/04/10 05:35:38;;;;;;;4.22;1.50;;;5.40;99.90;;;;;;5037670;28;20032;-73
2022/04/10 05:38:04;;;;;;;5.57;1.52;;;6.00;99.90;;;;;;5061696;28;20323;-72
2022/04/10 05:40:30;;;;;;;7.30;1.98;;;5.70;99.90;;;;;;5061796;28;20029;-72
2022/04/10 05:42:56;;;;;;;5.03;1.48;;;6.30;99.90;;;;;;5050264;28;20056;-73
2022/04/10 05:45:22;;;;;;;4.72;1.55;;;5.70;99.90;;;;;;5014262;28;20037;-73
2022/04/10 05:47:48;;;;;;;10.82;2.28;;;6.40;99.90;;;;;;5057137;28;20072;-74
2022/04/10 05:50:14;;;;;;;6.20;1.50;;;5.90;99.90;;;;;;5061454;28;20117;-73
2022/04/10 05:52:43;;;;;;;8.48;1.58;;;6.60;99.90;;;;;;5057399;28;20045;-73
2022/04/10 05:55:10;;;;;;;7.13;1.90;;;6.60;99.90;;;;;;5040620;28;20040;-73
2022/04/10 05:57:36;;;;;;;4.60;1.70;;;6.10;99.90;;;;;;5041617;28;20298;-74
2022/04/10 06:00:08;;;;;;;9.40;1.88;;;6.80;99.90;;;;;;5074920;28;20206;-74
2022/04/10 06:02:34;;;;;;;5.70;1.75;;;6.60;99.90;;;;;;5061178;28;20041;-73
2022/04/10 06:04:59;;;;;;;6.15;1.70;;;6.70;99.90;;;;;;5048501;28;20056;-72
2022/04/10 06:07:25;;;;;;;6.63;1.90;;;6.60;99.90;;;;;;5052616;28;20048;-74
2022/04/10 06:09:51;;;;;;;13.30;2.30;;;6.70;99.90;;;;;;5024126;28;20060;-75
2022/04/10 06:12:17;;;;;;;6.38;2.72;;;6.00;99.90;;;;;;5057518;28;20036;-73
2022/04/10 06:14:43;;;;;;;8.82;2.72;;;6.50;99.90;;;;;;5040216;28;20029;-73
2022/04/10 06:17:08;;;;;;;10.68;2.33;;;6.60;99.90;;;;;;5023583;28;20358;-74
2022/04/10 06:19:34;;;;;;;5.80;1.60;;;6.80;99.90;;;;;;5057647;28;20072;-73
2022/04/10 06:22:01;;;;;;;7.35;1.92;;;6.80;99.90;;;;;;5022517;28;20308;-74
2022/04/10 06:24:27;;;;;;;8.18;2.08;;;6.40;99.90;;;;;;5040916;28;20108;-73
2022/04/10 06:26:56;;;;;;;10.98;2.35;;;6.80;99.90;;;;;;5056035;28;20339;-73
2022/04/10 06:29:22;;;;;;;8.00;1.60;;;6.10;99.90;;;;;;5042481;28;20025;-74
2022/04/10 06:31:48;;;;;;;4.97;1.90;;;5.90;99.90;;;;;;5040786;28;20040;-74
2022/04/10 06:34:14;;;;;;;3.05;1.40;;;7.20;99.90;;;;;;5020702;28;20073;-74
2022/04/10 06:36:40;;;;;;;4.93;1.95;;;6.10;99.90;;;;;;5004227;28;20045;-74
2022/04/10 06:39:06;;;;;;;6.32;1.92;;;6.30;99.90;;;;;;5053651;28;20040;-73
2022/04/10 06:41:32;;;;;;;7.13;1.70;;;6.30;99.90;;;;;;5042368;28;20053;-72
2022/04/10 06:43:58;;;;;;;6.00;1.55;;;5.60;99.90;;;;;;5039917;28;20076;-73
2022/04/10 06:46:26;;;;;;;2.70;1.42;;;6.50;99.90;;;;;;5040175;28;20205;-73
2022/04/10 06:48:52;;;;;;;3.08;1.33;;;6.20;99.90;;;;;;5040686;28;20110;-72
2022/04/10 06:51:18;;;;;;;10.85;2.10;;;6.40;99.90;;;;;;5039909;28;20335;-74
2022/04/10 06:53:44;;;;;;;7.13;1.88;;;7.10;99.90;;;;;;5039722;28;20108;-74
2022/04/10 06:56:10;;;;;;;8.55;2.20;;;7.20;99.90;;;;;;5040528;28;20048;-72
2022/04/10 06:58:35;;;;;;;5.00;2.10;;;7.20;99.90;;;;;;5057298;28;20033;-73
2022/04/10 07:01:02;;;;;;;6.60;2.13;;;7.70;99.90;;;;;;5022556;28;20025;-73
2022/04/10 07:03:28;;;;;;;5.93;1.58;;;7.70;99.90;;;;;;5023820;28;20040;-74
2022/04/10 07:05:54;;;;;;;4.82;2.03;;;8.10;99.90;;;;;;5056484;28;20041;-72
2022/04/10 07:08:20;;;;;;;6.22;1.80;;;8.00;99.90;;;;;;5023963;28;20236;-74
2022/04/10 07:10:45;;;;;;;5.88;2.50;;;8.00;99.90;;;;;;5039711;28;20282;-74
2022/04/10 07:13:18;;;;;;;5.88;1.80;;;7.90;99.90;;;;;;5023908;28;20266;-73
2022/04/10 07:15:50;;;;;;;5.15;1.83;;;8.40;99.90;;;;;;5039510;28;20315;-75
2022/04/10 07:18:15;;;;;;;3.47;1.70;;;8.60;99.90;;;;;;5040659;28;20041;-74
2022/04/10 07:20:41;;;;;;;7.75;1.60;;;8.60;99.90;;;;;;5023559;28;20051;-75
2022/04/10 07:25:53;;;;;;;8.25;1.55;;;7.80;99.90;;;;;;5025055;28;20098;-74
2022/04/10 07:28:20;;;;;;;4.20;1.27;;;7.90;99.90;;;;;;5007394;28;20054;-73
2022/04/10 07:30:46;;;;;;;7.88;2.00;;;7.70;99.90;;;;;;5006978;28;20029;-72
2022/04/10 07:33:12;;;;;;;5.45;1.60;;;7.10;99.90;;;;;;5039830;28;20036;-73
2022/04/10 07:35:42;;;;;;;9.55;2.38;;;7.60;99.90;;;;;;5023203;28;20018;-73
2022/04/10 07:38:10;;;;;;;8.95;1.80;;;7.80;99.90;;;;;;5044265;28;20039;-73
2022/04/10 07:40:36;;;;;;;9.70;2.05;;;7.80;99.90;;;;;;5060729;28;20037;-73
2022/04/10 07:43:02;;;;;;;6.53;1.65;;;8.20;99.90;;;;;;5026608;28;20099;-73
2022/04/10 07:48:12;;;;;;;8.98;2.03;;;8.30;99.90;;;;;;5053690;28;20041;-76
2022/04/10 07:50:38;;;;;;;6.75;1.60;;;8.30;99.90;;;;;;5059770;28;20025;-74
2022/04/10 07:53:05;;;;;;;5.65;1.70;;;8.50;99.90;;;;;;5010758;28;20036;-74
2022/04/10 07:55:31;;;;;;;7.28;1.80;;;8.50;99.90;;;;;;5008540;28;20037;-72
2022/04/10 07:57:57;;;;;;;4.95;1.52;;;8.50;99.90;;;;;;5058450;28;20083;-74
2022/04/10 08:00:22;;;;;;;6.03;1.42;;;8.80;99.90;;;;;;5029983;28;20033;-73
2022/04/10 08:02:49;;;;;;;8.02;1.50;;;8.60;99.90;;;;;;5043684;28;20083;-74
2022/04/10 08:05:16;;;;;;;3.13;1.50;;;8.20;99.90;;;;;;5026356;28;20040;-73
2022/04/10 08:07:44;;;;;;;4.88;1.55;;;7.80;99.90;;;;;;5042992;28;20071;-76
2022/04/10 08:10:10;;;;;;;8.18;1.73;;;7.60;99.90;;;;;;5059416;28;20136;-73
2022/04/10 08:12:36;;;;;;;10.13;1.55;;;7.60;99.90;;;;;;5043601;28;20266;-73
2022/04/10 08:15:03;;;;;;;5.40;1.33;;;7.80;99.90;;;;;;5076570;28;20558;-73
2022/04/10 08:17:28;;;;;;;5.13;1.80;;;7.40;99.90;;;;;;5060550;28;20156;-73
2022/04/10 08:19:54;;;;;;;5.35;1.48;;;7.10;99.90;;;;;;5076117;28;20021;-74
2022/04/10 08:22:27;;;;;;;7.82;1.60;;;7.20;99.90;;;;;;5026796;28;20079;-73
2022/04/10 08:24:53;;;;;;;6.40;1.05;;;7.10;99.90;;;;;;5043377;28;20223;-73
2022/04/10 08:27:19;;;;;;;4.55;1.40;;;7.30;99.90;;;;;;5043597;28;20044;-74
2022/04/10 08:29:45;;;;;;;7.03;1.35;;;7.70;99.90;;;;;;5043070;28;20033;-74
2022/04/10 08:32:10;;;;;;;7.53;1.77;;;7.90;99.90;;;;;;5076453;28;20117;-74
2022/04/10 08:34:36;;;;;;;8.38;1.65;;;7.70;99.90;;;;;;5060129;28;20029;-75
2022/04/10 08:37:04;;;;;;;4.78;1.50;;;7.60;99.90;;;;;;5044902;28;20033;-73
2022/04/10 08:39:31;;;;;;;5.05;2.03;;;7.40;99.90;;;;;;5043298;28;20037;-73
2022/04/10 08:42:02;;;;;;;7.65;1.33;;;7.40;99.90;;;;;;5075904;28;20335;-74
2022/04/10 08:44:29;;;;;;;6.95;1.85;;;7.80;99.90;;;;;;5043261;28;20220;-73
2022/04/10 08:46:55;;;;;;;6.65;1.27;;;7.60;99.90;;;;;;5042419;28;20029;-74
2022/04/10 08:49:25;;;;;;;4.97;1.35;;;7.50;99.90;;;;;;5076218;28;20095;-73
2022/04/10 08:51:53;;;;;;;6.00;1.58;;;7.90;99.90;;;;;;5042244;28;20029;-73
2022/04/10 08:54:19;;;;;;;4.07;1.40;;;7.90;99.90;;;;;;5042791;28;20042;-73
2022/04/10 08:56:45;;;;;;;5.20;1.92;;;7.70;99.90;;;;;;5057920;28;20342;-73
2022/04/10 08:59:11;;;;;;;2.92;1.23;;;7.70;99.90;;;;;;5074868;28;20029;-74
2022/04/10 09:01:37;;;;;;;5.00;1.45;;;7.70;99.90;;;;;;5026355;28;20025;-74
2022/04/10 09:04:03;;;;;;;4.82;1.27;;;7.70;99.90;;;;;;5042233;28;20104;-74
2022/04/10 09:06:29;;;;;;;5.35;1.33;;;7.70;99.90;;;;;;5026908;28;20033;-74
2022/04/10 09:09:16;;;;;;;4.28;1.45;;;8.00;99.90;;;;;;5025779;28;20048;-74
2022/04/10 09:11:43;;;;;;;3.95;1.02;;;7.90;99.90;;;;;;5025911;28;20108;-74
2022/04/10 09:14:09;;;;;;;4.97;1.10;;;8.10;99.90;;;;;;5041992;28;20232;-74
2022/04/10 09:16:34;;;;;;;6.00;1.60;;;8.10;99.90;;;;;;5074847;28;20033;-74
2022/04/10 09:19:09;;;;;;;5.82;1.88;;;8.40;99.90;;;;;;5058864;28;20041;-74
2022/04/10 09:21:38;;;;;;;4.25;1.13;;;8.50;99.90;;;;;;5026192;28;20029;-74
2022/04/10 09:24:08;;;;;;;7.15;1.70;;;8.10;99.90;;;;;;5025771;28;20274;-74
2022/04/10 09:26:50;;;;;;;4.28;1.20;;;8.00;99.90;;;;;;5025033;28;20026;-74
2022/04/10 09:29:20;;;;;;;3.15;1.30;;;8.30;99.90;;;;;;5022927;28;20196;-74
2022/04/10 09:31:46;;;;;;;6.15;1.40;;;8.60;99.90;;;;;;5022403;28;20041;-74
2022/04/10 09:34:20;;;;;;;4.07;1.20;;;8.80;99.90;;;;;;5060249;28;20219;-74
2022/04/10 09:36:48;;;;;;;4.00;0.98;;;8.30;99.90;;;;;;5074717;28;20045;-74
2022/04/10 09:39:34;;;;;;;3.33;0.90;;;8.30;99.90;;;;;;5040982;28;20037;-74
2022/04/10 09:42:08;;;;;;;2.63;0.98;;;8.50;99.90;;;;;;5058215;28;20053;-74
2022/04/10 09:44:36;;;;;;;3.92;1.17;;;8.20;99.90;;;;;;5075162;28;20255;-74
2022/04/10 09:47:08;;;;;;;6.15;1.00;;;8.60;99.90;;;;;;5024650;28;20036;-75
2022/04/10 09:49:39;;;;;;;7.10;1.45;;;8.60;99.90;;;;;;5022016;28;20041;-74
2022/04/10 09:52:12;;;;;;;4.60;1.52;;;8.60;99.90;;;;;;5021749;28;20042;-74
2022/04/10 09:54:46;;;;;;;7.03;1.65;;;8.60;99.90;;;;;;5025575;28;20101;-74
2022/04/10 09:57:22;;;;;;;9.13;2.13;;;8.60;99.90;;;;;;5024842;28;20029;-74
2022/04/10 09:59:50;;;;;;;8.85;1.67;;;8.00;99.90;;;;;;5053871;28;20032;-74
2022/04/10 10:02:17;;;;;;;6.45;1.33;;;7.50;99.90;;;;;;5060352;28;20033;-74
2022/04/10 10:04:44;;;;;;;3.58;1.25;;;8.10;99.90;;;;;;5060682;28;20036;-74
2022/04/10 10:07:15;;;;;;;3.95;1.48;;;8.70;99.90;;;;;;5074324;28;20087;-74
2022/04/10 10:09:42;;;;;;;2.97;1.20;;;8.80;99.90;;;;;;5040621;28;20029;-73
2022/04/10 10:12:09;;;;;;;6.90;1.75;;;8.80;99.90;;;;;;5037543;28;20043;-73
2022/04/10 10:14:36;;;;;;;8.02;1.40;;;8.90;99.90;;;;;;5074173;28;20029;-74
2022/04/10 10:17:03;;;;;;;5.90;1.38;;;8.90;99.90;;;;;;5040774;28;20060;-76
2022/04/10 10:19:34;;;;;;;4.07;1.35;;;9.20;99.90;;;;;;5007978;28;20205;-74
2022/04/10 10:22:00;;;;;;;2.75;1.25;;;9.00;99.90;;;;;;5024723;28;20379;-76
2022/04/10 10:24:30;;;;;;;2.95;1.23;;;8.80;99.90;;;;;;5024603;28;20025;-75
2022/04/10 10:27:24;;;;;;;2.30;0.90;;;8.70;99.90;;;;;;5074455;28;20044;-74
2022/04/10 10:29:52;;;;;;;6.75;1.40;;;9.00;99.90;;;;;;5040910;28;20033;-76
2022/04/10 10:32:35;;;;;;;5.93;1.10;;;9.30;99.90;;;;;;5072448;28;20071;-75
2022/04/10 10:35:01;;;;;;;5.13;1.17;;;9.20;99.90;;;;;;5024344;28;20342;-75
2022/04/10 10:37:31;;;;;;;4.65;1.10;;;9.00;99.90;;;;;;5040806;28;20033;-76
2022/04/10 10:39:58;;;;;;;2.15;1.05;;;9.10;99.90;;;;;;5056083;28;20300;-75
2022/04/10 10:42:24;;;;;;;6.05;1.73;;;9.20;99.90;;;;;;5074728;28;20036;-75
2022/04/10 10:44:51;;;;;;;3.60;0.98;;;9.70;99.90;;;;;;5024453;28;20216;-74
2022/04/10 10:47:19;;;;;;;4.88;0.95;;;9.70;99.90;;;;;;5072048;28;20083;-75
2022/04/10 10:49:50;;;;;;;5.07;1.48;;;9.80;99.90;;;;;;5074040;28;20323;-76
2022/04/10 10:52:17;;;;;;;6.85;1.40;;;9.70;99.90;;;;;;5073890;28;20033;-76
2022/04/10 10:55:01;;;;;;;4.18;1.30;;;9.40;99.90;;;;;;5076027;28;20030;-74
2022/04/10 10:57:28;;;;;;;3.27;1.20;;;9.20;99.90;;;;;;5039891;28;20334;-77
2022/04/10 11:00:20;;;;;;;4.85;1.25;;;9.30;99.90;;;;;;5024400;28;20590;-74
2022/04/10 11:02:53;;;;;;;3.97;1.20;;;9.70;99.90;;;;;;5041380;28;20044;-76
2022/04/10 11:05:27;;;;;;;7.25;1.40;;;10.00;99.90;;;;;;5040412;28;20045;-78
2022/04/10 11:08:17;;;;;;;4.43;1.00;;;10.00;99.90;;;;;;5073031;28;20096;-77
2022/04/10 11:10:59;;;;;;;2.78;1.00;;;10.00;99.90;;;;;;5039494;28;20067;-75
2022/04/10 11:13:42;;;;;;;5.00;1.35;;;9.70;99.90;;;;;;5058172;28;20029;-75
2022/04/10 11:16:13;;;;;;;4.60;1.27;;;9.30;99.90;;;;;;5042767;28;20040;-73
2022/04/10 11:18:43;;;;;;;2.83;1.00;;;9.50;99.90;;;;;;5030492;28;20301;-75
2022/04/10 11:21:14;;;;;;;8.73;1.40;;;10.00;99.90;;;;;;5024329;28;20120;-74
2022/04/10 11:23:47;;;;;;;6.25;1.45;;;9.70;99.90;;;;;;5044612;28;20029;-74
2022/04/10 11:26:20;;;;;;;8.35;1.75;;;10.30;99.90;;;;;;5076593;28;20029;-74
2022/04/10 11:29:01;;;;;;;4.18;1.30;;;10.60;99.90;;;;;;5044491;28;20036;-74
2022/04/10 11:31:44;;;;;;;7.82;1.60;;;10.30;99.90;;;;;;5044527;28;20029;-74
2022/04/10 11:34:22;;;;;;;3.08;0.90;;;10.00;99.90;;;;;;5061030;28;20104;-74
2022/04/10 11:36:49;;;;;;;5.65;1.30;;;9.90;99.90;;;;;;5076956;28;20113;-73
2022/04/10 11:39:18;;;;;;;5.20;1.30;;;9.90;99.90;;;;;;5027037;28;20041;-73
2022/04/10 11:41:45;;;;;;;3.55;1.10;;;9.90;99.90;;;;;;5044086;28;20339;-74
2022/04/10 11:44:11;;;;;;;4.97;1.23;;;9.90;99.90;;;;;;5011179;28;20072;-73
2022/04/10 11:46:37;;;;;;;3.95;1.20;;;10.30;99.90;;;;;;5027710;28;20033;-73
2022/04/10 11:49:03;;;;;;;6.20;1.50;;;9.70;99.90;;;;;;5027365;28;20044;-73
2022/04/10 11:51:29;;;;;;;4.10;1.30;;;9.70;99.90;;;;;;5043867;28;20041;-74
2022/04/10 11:53:58;;;;;;;2.72;1.10;;;9.20;99.90;;;;;;5027663;28;20037;-73
2022/04/10 11:56:24;;;;;;;4.47;1.58;;;9.50;99.90;;;;;;5075933;28;20072;-73
2022/04/10 11:58:50;;;;;;;5.30;1.20;;;9.80;99.90;;;;;;5076480;28;20037;-74
2022/04/10 12:01:19;;;;;;;4.78;1.23;;;9.50;99.90;;;;;;5010881;28;20030;-74
2022/04/10 12:03:49;;;;;;;5.70;1.10;;;9.20;99.90;;;;;;5027307;28;20046;-74
2022/04/10 12:06:21;;;;;;;3.47;1.15;;;9.80;99.90;;;;;;5026773;28;20369;-75
2022/04/10 12:08:48;;;;;;;2.67;1.30;;;10.10;99.90;;;;;;5043487;28;20034;-75
2022/04/10 12:11:14;;;;;;;2.83;1.10;;;9.90;99.90;;;;;;5027082;28;20048;-75
2022/04/10 12:13:40;;;;;;;4.10;1.10;;;10.00;99.90;;;;;;5043453;28;20053;-75
2022/04/10 12:16:13;;;;;;;3.65;1.15;;;10.10;99.90;;;;;;5042775;28;20029;-75
2022/04/10 12:18:49;;;;;;;2.63;0.95;;;9.90;99.90;;;;;;5059034;28;20037;-74
2022/04/10 12:21:16;;;;;;;5.97;1.63;;;9.90;99.90;;;;;;5060116;28;20037;-75
2022/04/10 12:23:43;;;;;;;6.63;1.33;;;9.60;99.90;;;;;;5060403;28;20307;-76
2022/04/10 12:26:09;;;;;;;6.13;1.17;;;9.30;99.90;;;;;;5058516;28;20029;-73
2022/04/10 12:28:37;;;;;;;7.88;1.52;;;9.40;99.90;;;;;;5043222;28;20393;-74
2022/04/10 12:31:03;;;;;;;2.83;1.08;;;9.80;99.90;;;;;;5043773;28;20052;-73
2022/04/10 12:33:30;;;;;;;5.35;1.58;;;10.00;99.90;;;;;;5043381;28;20041;-73
2022/04/10 12:35:56;;;;;;;5.15;1.20;;;10.50;99.90;;;;;;5076664;28;20048;-74
2022/04/10 12:38:30;;;;;;;6.18;1.27;;;10.20;99.90;;;;;;5025654;28;20045;-74
2022/04/10 12:41:05;;;;;;;5.47;1.52;;;9.90;99.90;;;;;;5043389;28;20311;-72
2022/04/10 12:43:32;;;;;;;8.15;1.50;;;10.30;99.90;;;;;;5026447;28;20054;-73
2022/04/10 12:46:09;;;;;;;3.30;1.20;;;10.30;99.90;;;;;;5025854;28;20116;-73
2022/04/10 12:48:34;;;;;;;3.05;1.30;;;10.20;99.90;;;;;;5043190;28;20070;-71
2022/04/10 12:51:09;;;;;;;3.80;1.17;;;9.90;99.90;;;;;;5076144;28;20033;-74
2022/04/10 12:53:36;;;;;;;4.70;1.27;;;9.60;99.90;;;;;;5059894;28;20052;-74
2022/04/10 12:56:02;;;;;;;4.07;1.13;;;9.60;99.90;;;;;;5043401;28;20029;-74
2022/04/10 12:58:42;;;;;;;4.82;1.45;;;10.10;99.90;;;;;;5059622;28;20041;-74
2022/04/10 13:01:32;;;;;;;5.38;1.20;;;9.90;99.90;;;;;;5075927;28;20044;-74
2022/04/10 13:04:00;;;;;;;3.38;1.30;;;10.00;99.90;;;;;;5042508;28;20049;-73